Monroe, WI

5:31 AM CST on December 15, 2019 (GMT -0600)
Monroe Municipal

Weather History for KEFT - November, 2019

Change the Weather History Date:

Saturday, November 16, 2019

  Actual Average Record
Temperature  
Mean Temperature 32 °F -  
Max Temperature 38 °F 0 °F 62 °F (2001)
Min Temperature 26 °F - 10 °F (2014)
Degree Days  
Heating Degree Days 33    
Moisture  
Dew Point 27 °F    
Average Humidity 83    
Maximum Humidity 97    
Minimum Humidity 68    
Precipitation  
Precipitation 0.00 in - - ()
Sea Level Pressure  
Sea Level Pressure 30.29 in    
Wind  
Wind Speed 7 mph (SE)    
Max Wind Speed 13 mph    
Max Gust Speed 16 mph    
Visibility 8 miles    
Events      
Averages and records for this station are not official NWS values.
T = Trace of Precipitation, MM = Missing Value Source: NWS Daily Summary

Daily Weather History Graph

Daily Weather History Graph

Search for Another Location

Airport or City:

Astronomy

Nov. 16, 2019 Rise Set
Actual Time 6:50 AM CST 4:34 PM CST
Civil Twilight 6:20 AM CST 5:05 PM CST
Nautical Twilight 5:46 AM CST 5:39 PM CST
Astronomical Twilight 5:12 AM CST 6:12 PM CST
Moon 8:05 PM CST (11/16) 10:47 AM CST (11/16)
Length of Visible Light 10h 45m
Length of Day
9h 44m
Waning Gibbous, 82% of the Moon is Illuminated
Nov 16
Waning Gibbous
Nov 19
Last Quarter
Nov 26
New
Dec 4
First Quarter
Dec 11
Full

Hourly Weather History & Observations

Time (CST) Temp. Windchill Dew Point Humidity Pressure Visibility Wind Dir Wind Speed Gust Speed Precip Events Conditions
12:15 AM 28.4 °F 21.2 °F 23.9 °F 83% 30.39 in 10.0 mi ESE 6.9 mph - N/A   Clear
12:35 AM 28.4 °F 21.2 °F 23.9 °F 83% 30.39 in 10.0 mi ESE 6.9 mph - N/A   Clear
12:55 AM 28.4 °F 23.3 °F 23.9 °F 83% 30.39 in 10.0 mi ESE 4.6 mph - N/A   Clear
1:15 AM 28.4 °F 22.2 °F 23.9 °F 83% 30.39 in 10.0 mi SE 5.8 mph - N/A   Clear
1:35 AM 28.2 °F 21.0 °F 23.9 °F 84% 30.38 in 10.0 mi SE 6.9 mph - N/A   Clear
1:55 AM 28.8 °F 22.6 °F 24.1 °F 83% 30.38 in 10.0 mi SE 5.8 mph - N/A   Clear
2:35 AM 27.9 °F 22.6 °F 23.9 °F 85% 30.38 in 10.0 mi ESE 4.6 mph - N/A   Clear
2:55 AM 27.7 °F 22.4 °F 24.1 °F 86% 30.38 in 7.0 mi ESE 4.6 mph - N/A   Clear
3:15 AM 27.3 °F 22.0 °F 23.9 °F 87% 30.37 in 7.0 mi East 4.6 mph - N/A   Clear
3:55 AM 27.3 °F 22.0 °F 23.9 °F 87% 30.37 in 7.0 mi East 4.6 mph - N/A   Clear
4:15 AM 27.3 °F 22.0 °F 24.1 °F 88% 30.37 in 7.0 mi ENE 4.6 mph - N/A   Clear
4:35 AM 27.3 °F 23.4 °F 24.3 °F 88% 30.38 in 7.0 mi ENE 3.5 mph - N/A   Clear
4:55 AM 27.1 °F 21.8 °F 24.3 °F 89% 30.38 in 7.0 mi ENE 4.6 mph - N/A   Clear
5:15 AM 26.6 °F 20.0 °F 24.8 °F 93% 30.37 in 7.0 mi East 5.8 mph - N/A   Clear
5:35 AM 26.4 °F 19.8 °F 24.8 °F 94% 30.37 in 7.0 mi East 5.8 mph - N/A   Clear
5:55 AM 26.2 °F 19.6 °F 25.2 °F 96% 30.37 in 5.0 mi East 5.8 mph - N/A   Clear
6:15 AM 26.1 °F 17.6 °F 25.0 °F 96% 30.37 in 5.0 mi East 8.1 mph - N/A   Clear
6:35 AM 26.2 °F 18.6 °F 25.3 °F 96% 30.37 in 7.0 mi East 6.9 mph - N/A   Clear
6:55 AM 26.2 °F 19.6 °F 25.5 °F 97% 30.37 in 5.0 mi East 5.8 mph - N/A   Clear
7:15 AM 26.1 °F 19.4 °F 25.3 °F 97% 30.38 in 4.0 mi ESE 5.8 mph - N/A   Clear
7:35 AM 26.4 °F 19.8 °F 25.7 °F 97% 30.38 in 5.0 mi ESE 5.8 mph - N/A   Clear
7:55 AM 27.1 °F 20.7 °F 26.1 °F 96% 30.38 in 5.0 mi ESE 5.8 mph - N/A   Clear
8:15 AM 28.0 °F 20.8 °F 27.0 °F 96% 30.37 in 5.0 mi SE 6.9 mph - N/A   Clear
8:35 AM 28.6 °F 22.4 °F 27.5 °F 96% 30.37 in 5.0 mi SE 5.8 mph - N/A   Clear
8:55 AM 29.3 °F 24.3 °F 27.9 °F 94% 30.38 in 5.0 mi SE 4.6 mph - N/A   Clear
9:15 AM 30.0 °F 24.1 °F 28.0 °F 92% 30.37 in 5.0 mi SE 5.8 mph - N/A   Clear
9:35 AM 30.7 °F 26.0 °F 28.2 °F 90% 30.37 in 7.0 mi SE 4.6 mph - N/A   Clear
9:55 AM 31.1 °F 24.5 °F 28.4 °F 90% 30.37 in 7.0 mi SE 6.9 mph - N/A   Clear
10:15 AM 32.0 °F 25.6 °F 29.1 °F 89% 30.37 in 7.0 mi SE 6.9 mph - N/A   Clear
10:35 AM 33.1 °F 25.5 °F 29.5 °F 87% 30.36 in 10.0 mi SE 9.2 mph - N/A   Clear
10:55 AM 34.3 °F 27.0 °F 29.1 °F 81% 30.35 in 10.0 mi SSE 9.2 mph - N/A   Clear
11:15 AM 34.3 °F 27.0 °F 29.1 °F 81% 30.34 in 10.0 mi SSE 9.2 mph - N/A   Clear
11:35 AM 35.2 °F 27.6 °F 29.5 °F 80% 30.33 in 10.0 mi SSE 10.4 mph - N/A   Clear
11:55 AM 37.4 °F 29.8 °F 29.8 °F 74% 30.32 in 10.0 mi SSE 11.5 mph - N/A   Clear
12:15 PM 37.6 °F 29.6 °F 28.9 °F 71% 30.31 in 10.0 mi SSE 12.7 mph - N/A   Clear
12:35 PM 37.9 °F 31.5 °F 28.9 °F 70% 30.30 in 10.0 mi SSE 9.2 mph - N/A   Clear
12:55 PM 38.3 °F 30.9 °F 28.8 °F 69% 30.29 in 10.0 mi SSE 11.5 mph 16.1 mph N/A   Clear
1:15 PM 37.8 °F 30.2 °F 28.2 °F 68% 30.28 in 10.0 mi SSE 11.5 mph - N/A   Clear
1:35 PM 37.4 °F 31.4 °F 28.9 °F 71% 30.28 in 10.0 mi SE 8.1 mph - N/A   Clear
2:15 PM 37.0 °F 29.8 °F 29.1 °F 73% 30.25 in 10.0 mi SE 10.4 mph - N/A   Clear
2:35 PM 37.2 °F 31.2 °F 29.1 °F 73% 30.24 in 10.0 mi SSE 8.1 mph - N/A   Clear
2:55 PM 37.4 °F 30.8 °F 28.9 °F 71% 30.24 in 10.0 mi SE 9.2 mph - N/A   Clear
3:15 PM 37.4 °F 32.1 °F 28.6 °F 70% 30.23 in 10.0 mi SE 6.9 mph - N/A   Clear
3:35 PM 37.4 °F 32.1 °F 27.9 °F 68% 30.23 in 10.0 mi SE 6.9 mph - N/A   Clear
3:55 PM 37.4 °F 30.8 °F 28.2 °F 69% 30.22 in 10.0 mi SE 9.2 mph - N/A   Clear
4:15 PM 36.7 °F 29.9 °F 28.2 °F 71% 30.22 in 10.0 mi SE 9.2 mph - N/A   Clear
4:35 PM 35.6 °F 28.0 °F 28.0 °F 74% 30.22 in 10.0 mi SE 10.4 mph - N/A   Clear
4:55 PM 34.7 °F 27.5 °F 28.0 °F 77% 30.21 in 10.0 mi SSE 9.2 mph - N/A   Clear
5:15 PM 34.3 °F 27.0 °F 27.9 °F 77% 30.21 in 10.0 mi SE 9.2 mph - N/A   Clear
5:55 PM 33.8 °F 27.0 °F 27.5 °F 78% 30.20 in 10.0 mi ESE 8.1 mph - N/A   Clear
6:15 PM 33.6 °F 26.8 °F 27.3 °F 78% 30.20 in 10.0 mi ESE 8.1 mph - N/A   Clear
6:35 PM 33.1 °F 26.1 °F 27.3 °F 79% 30.20 in 10.0 mi SE 8.1 mph - N/A   Clear
6:55 PM 32.9 °F 25.3 °F 27.3 °F 80% 30.20 in 10.0 mi SE 9.2 mph - N/A   Clear
7:35 PM 32.0 °F 24.2 °F 27.0 °F 82% 30.18 in 10.0 mi SSE 9.2 mph - N/A   Clear
7:55 PM 32.0 °F 24.8 °F 26.6 °F 80% 30.18 in 10.0 mi SSE 8.1 mph - N/A   Clear
8:15 PM 31.8 °F 23.9 °F 26.6 °F 81% 30.18 in 10.0 mi SSE 9.2 mph - N/A   Clear
8:35 PM 32.0 °F 24.2 °F 26.6 °F 80% 30.16 in 10.0 mi SE 9.2 mph - N/A   Clear
9:15 PM 31.8 °F 24.6 °F 26.6 °F 81% 30.17 in 10.0 mi SE 8.1 mph - N/A   Clear
9:35 PM 31.1 °F 24.5 °F 26.6 °F 83% 30.16 in 10.0 mi SE 6.9 mph - N/A   Clear
9:55 PM 30.9 °F 24.3 °F 26.4 °F 83% 30.17 in 10.0 mi SSE 6.9 mph - N/A   Clear
10:15 PM 31.1 °F 23.7 °F 26.6 °F 83% 30.16 in 10.0 mi SSE 8.1 mph - N/A   Clear
10:35 PM 31.3 °F 23.3 °F 27.0 °F 84% 30.15 in 10.0 mi SSE 9.2 mph - N/A   Clear
10:55 PM 30.7 °F 22.6 °F 26.8 °F 85% 30.15 in 7.0 mi SSE 9.2 mph - N/A   Clear
11:15 PM 31.1 °F 22.4 °F 27.3 °F 86% 30.14 in 7.0 mi SE 10.4 mph - N/A   Clear
11:35 PM 31.1 °F 24.5 °F 27.5 °F 87% 30.15 in 7.0 mi South 6.9 mph - N/A   Clear
11:55 PM 31.6 °F 24.4 °F 27.9 °F 86% 30.15 in 10.0 mi SSE 8.1 mph - N/A   Clear